sensor_id;sensor_type;location;lat;lon;timestamp;temperature;humidity
51500;DHT22;39101;53.478;6.158;2023-02-01T00:02:05;6.60;99.90
51500;DHT22;39101;53.478;6.158;2023-02-01T00:04:31;6.60;99.90
51500;DHT22;39101;53.478;6.158;2023-02-01T00:06:56;6.60;99.90
51500;DHT22;39101;53.478;6.158;2023-02-01T00:09:22;6.60;99.90
51500;DHT22;39101;53.478;6.158;2023-02-01T00:11:47;6.60;99.90
51500;DHT22;39101;53.478;6.158;2023-02-01T00:14:13;6.50;99.90
51500;DHT22;39101;53.478;6.158;2023-02-01T00:16:39;6.50;99.90
51500;DHT22;39101;53.478;6.158;2023-02-01T00:19:10;6.60;99.90
51500;DHT22;39101;53.478;6.158;2023-02-01T00:21:37;6.50;99.90
51500;DHT22;39101;53.478;6.158;2023-02-01T00:24:03;6.60;99.90
51500;DHT22;39101;53.478;6.158;2023-02-01T00:26:38;6.60;99.90
51500;DHT22;39101;53.478;6.158;2023-02-01T00:29:06;6.60;99.90
51500;DHT22;39101;53.478;6.158;2023-02-01T00:31:32;6.70;99.90
51500;DHT22;39101;53.478;6.158;2023-02-01T00:33:58;6.70;99.90
51500;DHT22;39101;53.478;6.158;2023-02-01T00:36:24;6.60;99.90
51500;DHT22;39101;53.478;6.158;2023-02-01T00:38:50;6.60;99.90
51500;DHT22;39101;53.478;6.158;2023-02-01T00:41:20;6.70;99.90
51500;DHT22;39101;53.478;6.158;2023-02-01T00:43:46;6.60;99.90
51500;DHT22;39101;53.478;6.158;2023-02-01T00:46:14;6.80;99.90
51500;DHT22;39101;53.478;6.158;2023-02-01T00:48:40;6.70;99.90
51500;DHT22;39101;53.478;6.158;2023-02-01T00:51:09;6.70;99.90
51500;DHT22;39101;53.478;6.158;2023-02-01T00:53:35;6.70;99.90
51500;DHT22;39101;53.478;6.158;2023-02-01T00:56:01;6.70;99.90
51500;DHT22;39101;53.478;6.158;2023-02-01T00:58:27;6.80;99.90
51500;DHT22;39101;53.478;6.158;2023-02-01T01:03:35;6.70;99.90
51500;DHT22;39101;53.478;6.158;2023-02-01T01:06:04;6.60;99.90
51500;DHT22;39101;53.478;6.158;2023-02-01T01:08:30;6.50;99.90
51500;DHT22;39101;53.478;6.158;2023-02-01T01:10:55;6.50;99.90
51500;DHT22;39101;53.478;6.158;2023-02-01T01:13:21;6.70;99.90
51500;DHT22;39101;53.478;6.158;2023-02-01T01:15:47;6.70;99.90
51500;DHT22;39101;53.478;6.158;2023-02-01T01:18:13;6.60;99.90
51500;DHT22;39101;53.478;6.158;2023-02-01T01:20:40;6.70;99.90
51500;DHT22;39101;53.478;6.158;2023-02-01T01:23:07;6.60;99.90
51500;DHT22;39101;53.478;6.158;2023-02-01T01:25:40;6.50;99.90
51500;DHT22;39101;53.478;6.158;2023-02-01T01:28:06;6.50;99.90
51500;DHT22;39101;53.478;6.158;2023-02-01T01:30:34;6.40;99.90
51500;DHT22;39101;53.478;6.158;2023-02-01T01:33:00;6.50;99.90
51500;DHT22;39101;53.478;6.158;2023-02-01T01:35:25;6.40;99.90
51500;DHT22;39101;53.478;6.158;2023-02-01T01:37:51;6.40;99.90
51500;DHT22;39101;53.478;6.158;2023-02-01T01:40:17;6.40;99.90
51500;DHT22;39101;53.478;6.158;2023-02-01T01:42:43;6.50;99.90
51500;DHT22;39101;53.478;6.158;2023-02-01T01:45:29;6.50;99.90
51500;DHT22;39101;53.478;6.158;2023-02-01T01:48:04;6.50;99.90
51500;DHT22;39101;53.478;6.158;2023-02-01T01:50:42;6.40;99.90
51500;DHT22;39101;53.478;6.158;2023-02-01T01:53:12;6.40;99.90
51500;DHT22;39101;53.478;6.158;2023-02-01T01:55:43;6.30;99.90
51500;DHT22;39101;53.478;6.158;2023-02-01T01:58:13;6.40;99.90
51500;DHT22;39101;53.478;6.158;2023-02-01T02:00:40;6.30;99.90
51500;DHT22;39101;53.478;6.158;2023-02-01T02:05:41;6.20;99.90
51500;DHT22;39101;53.478;6.158;2023-02-01T02:08:07;6.20;99.90
51500;DHT22;39101;53.478;6.158;2023-02-01T02:10:33;6.10;99.90
51500;DHT22;39101;53.478;6.158;2023-02-01T02:13:18;6.00;99.90
51500;DHT22;39101;53.478;6.158;2023-02-01T02:21:14;5.90;99.90
51500;DHT22;39101;53.478;6.158;2023-02-01T02:23:50;6.10;99.90
51500;DHT22;39101;53.478;6.158;2023-02-01T02:41:07;6.10;99.90
51500;DHT22;39101;53.478;6.158;2023-02-01T02:43:48;6.20;99.90
51500;DHT22;39101;53.478;6.158;2023-02-01T02:46:47;6.20;99.90
51500;DHT22;39101;53.478;6.158;2023-02-01T02:49:49;6.20;99.90
51500;DHT22;39101;53.478;6.158;2023-02-01T02:52:41;6.30;99.90
51500;DHT22;39101;53.478;6.158;2023-02-01T02:55:27;6.30;99.90
51500;DHT22;39101;53.478;6.158;2023-02-01T02:57:53;6.30;99.90
51500;DHT22;39101;53.478;6.158;2023-02-01T03:00:39;6.30;99.90
51500;DHT22;39101;53.478;6.158;2023-02-01T03:03:24;6.40;99.90
51500;DHT22;39101;53.478;6.158;2023-02-01T03:06:16;6.40;99.90
51500;DHT22;39101;53.478;6.158;2023-02-01T03:08:44;6.50;99.90
51500;DHT22;39101;53.478;6.158;2023-02-01T03:11:13;6.50;99.90
51500;DHT22;39101;53.478;6.158;2023-02-01T03:13:49;6.50;99.90
51500;DHT22;39101;53.478;6.158;2023-02-01T03:16:25;6.50;99.90
51500;DHT22;39101;53.478;6.158;2023-02-01T03:21:25;6.50;99.90
51500;DHT22;39101;53.478;6.158;2023-02-01T03:23:53;6.40;99.90
51500;DHT22;39101;53.478;6.158;2023-02-01T03:26:22;6.30;99.90
51500;DHT22;39101;53.478;6.158;2023-02-01T03:28:57;6.10;99.90
51500;DHT22;39101;53.478;6.158;2023-02-01T03:31:27;5.90;99.90
51500;DHT22;39101;53.478;6.158;2023-02-01T03:33:53;5.70;99.90
51500;DHT22;39101;53.478;6.158;2023-02-01T03:36:34;5.60;99.90
51500;DHT22;39101;53.478;6.158;2023-02-01T03:39:15;5.80;99.90
51500;DHT22;39101;53.478;6.158;2023-02-01T03:41:53;5.80;99.90
51500;DHT22;39101;53.478;6.158;2023-02-01T03:44:28;5.70;99.90
51500;DHT22;39101;53.478;6.158;2023-02-01T03:47:16;5.80;99.90
51500;DHT22;39101;53.478;6.158;2023-02-01T03:50:09;5.90;99.90
51500;DHT22;39101;53.478;6.158;2023-02-01T03:55:05;5.80;99.90
51500;DHT22;39101;53.478;6.158;2023-02-01T03:57:37;6.00;99.90
51500;DHT22;39101;53.478;6.158;2023-02-01T04:02:41;6.10;99.90
51500;DHT22;39101;53.478;6.158;2023-02-01T04:05:07;6.10;99.90
51500;DHT22;39101;53.478;6.158;2023-02-01T04:07:33;5.90;99.90
51500;DHT22;39101;53.478;6.158;2023-02-01T04:09:59;6.00;99.90
51500;DHT22;39101;53.478;6.158;2023-02-01T04:12:24;5.90;99.90
51500;DHT22;39101;53.478;6.158;2023-02-01T04:14:50;6.00;99.90
51500;DHT22;39101;53.478;6.158;2023-02-01T04:17:15;6.10;99.90
51500;DHT22;39101;53.478;6.158;2023-02-01T04:19:41;6.00;99.90
51500;DHT22;39101;53.478;6.158;2023-02-01T04:22:07;6.10;99.90
51500;DHT22;39101;53.478;6.158;2023-02-01T04:24:32;6.10;99.90
51500;DHT22;39101;53.478;6.158;2023-02-01T04:26:58;6.00;99.90
51500;DHT22;39101;53.478;6.158;2023-02-01T04:29:24;6.20;99.90
51500;DHT22;39101;53.478;6.158;2023-02-01T04:31:49;6.10;99.90
51500;DHT22;39101;53.478;6.158;2023-02-01T04:34:15;6.20;99.90
51500;DHT22;39101;53.478;6.158;2023-02-01T04:36:41;6.10;99.90
51500;DHT22;39101;53.478;6.158;2023-02-01T04:39:09;6.30;99.90
51500;DHT22;39101;53.478;6.158;2023-02-01T04:41:34;6.20;99.90
51500;DHT22;39101;53.478;6.158;2023-02-01T04:44:00;6.20;99.90
51500;DHT22;39101;53.478;6.158;2023-02-01T04:46:26;6.30;99.90
51500;DHT22;39101;53.478;6.158;2023-02-01T04:48:52;6.20;99.90
51500;DHT22;39101;53.478;6.158;2023-02-01T04:51:18;6.20;99.90
51500;DHT22;39101;53.478;6.158;2023-02-01T04:53:44;6.30;99.90
51500;DHT22;39101;53.478;6.158;2023-02-01T04:56:10;6.30;99.90
51500;DHT22;39101;53.478;6.158;2023-02-01T04:58:36;6.40;99.90
51500;DHT22;39101;53.478;6.158;2023-02-01T05:01:05;6.50;99.90
51500;DHT22;39101;53.478;6.158;2023-02-01T05:03:33;6.40;99.90
51500;DHT22;39101;53.478;6.158;2023-02-01T05:05:59;6.40;99.90
51500;DHT22;39101;53.478;6.158;2023-02-01T05:08:25;6.30;99.90
51500;DHT22;39101;53.478;6.158;2023-02-01T05:10:52;6.40;99.90
51500;DHT22;39101;53.478;6.158;2023-02-01T05:13:18;6.40;99.90
51500;DHT22;39101;53.478;6.158;2023-02-01T05:16:02;6.50;99.90
51500;DHT22;39101;53.478;6.158;2023-02-01T05:18:28;6.50;99.90
51500;DHT22;39101;53.478;6.158;2023-02-01T05:20:53;6.50;99.90
51500;DHT22;39101;53.478;6.158;2023-02-01T05:23:19;6.70;99.90
51500;DHT22;39101;53.478;6.158;2023-02-01T05:25:45;6.50;99.90
51500;DHT22;39101;53.478;6.158;2023-02-01T05:28:10;6.60;99.90
51500;DHT22;39101;53.478;6.158;2023-02-01T05:30:36;6.50;99.90
51500;DHT22;39101;53.478;6.158;2023-02-01T05:33:03;6.40;99.90
51500;DHT22;39101;53.478;6.158;2023-02-01T05:35:29;6.60;99.90
51500;DHT22;39101;53.478;6.158;2023-02-01T05:37:54;6.40;99.90
51500;DHT22;39101;53.478;6.158;2023-02-01T05:40:20;6.60;99.90
51500;DHT22;39101;53.478;6.158;2023-02-01T05:42:46;6.50;99.90
51500;DHT22;39101;53.478;6.158;2023-02-01T05:45:11;6.50;99.90
51500;DHT22;39101;53.478;6.158;2023-02-01T05:47:37;6.60;99.90
51500;DHT22;39101;53.478;6.158;2023-02-01T05:50:04;6.60;99.90
51500;DHT22;39101;53.478;6.158;2023-02-01T05:52:30;6.60;99.90
51500;DHT22;39101;53.478;6.158;2023-02-01T05:54:56;6.50;99.90
51500;DHT22;39101;53.478;6.158;2023-02-01T05:57:21;6.60;99.90
51500;DHT22;39101;53.478;6.158;2023-02-01T05:59:47;6.50;99.90
51500;DHT22;39101;53.478;6.158;2023-02-01T06:02:14;6.50;99.90
51500;DHT22;39101;53.478;6.158;2023-02-01T06:04:40;6.50;99.90
51500;DHT22;39101;53.478;6.158;2023-02-01T06:07:07;6.40;99.90
51500;DHT22;39101;53.478;6.158;2023-02-01T06:09:35;6.50;99.90
51500;DHT22;39101;53.478;6.158;2023-02-01T06:12:01;6.60;99.90
51500;DHT22;39101;53.478;6.158;2023-02-01T06:14:27;6.40;99.90
51500;DHT22;39101;53.478;6.158;2023-02-01T06:16:53;6.50;99.90
51500;DHT22;39101;53.478;6.158;2023-02-01T06:19:19;6.50;99.90
51500;DHT22;39101;53.478;6.158;2023-02-01T06:21:45;6.40;99.90
51500;DHT22;39101;53.478;6.158;2023-02-01T06:24:12;6.50;99.90
51500;DHT22;39101;53.478;6.158;2023-02-01T06:26:38;6.50;99.90
51500;DHT22;39101;53.478;6.158;2023-02-01T06:29:06;6.50;99.90
51500;DHT22;39101;53.478;6.158;2023-02-01T06:31:32;6.70;99.90
51500;DHT22;39101;53.478;6.158;2023-02-01T06:33:58;6.70;99.90
51500;DHT22;39101;53.478;6.158;2023-02-01T06:36:24;6.60;99.90
51500;DHT22;39101;53.478;6.158;2023-02-01T06:38:49;6.60;99.90
51500;DHT22;39101;53.478;6.158;2023-02-01T06:41:16;6.70;99.90
51500;DHT22;39101;53.478;6.158;2023-02-01T06:43:42;6.70;99.90
51500;DHT22;39101;53.478;6.158;2023-02-01T06:46:12;6.70;99.90
51500;DHT22;39101;53.478;6.158;2023-02-01T06:48:38;6.70;99.90
51500;DHT22;39101;53.478;6.158;2023-02-01T06:51:04;6.60;99.90
51500;DHT22;39101;53.478;6.158;2023-02-01T06:53:30;6.60;99.90
51500;DHT22;39101;53.478;6.158;2023-02-01T06:56:01;6.70;99.90
51500;DHT22;39101;53.478;6.158;2023-02-01T06:58:31;6.70;99.90
51500;DHT22;39101;53.478;6.158;2023-02-01T07:00:57;6.60;99.90
51500;DHT22;39101;53.478;6.158;2023-02-01T07:03:23;6.70;99.90
51500;DHT22;39101;53.478;6.158;2023-02-01T07:05:49;6.70;99.90
51500;DHT22;39101;53.478;6.158;2023-02-01T07:08:15;6.60;99.90
51500;DHT22;39101;53.478;6.158;2023-02-01T07:10:40;6.70;99.90
51500;DHT22;39101;53.478;6.158;2023-02-01T07:13:06;6.60;99.90
51500;DHT22;39101;53.478;6.158;2023-02-01T07:15:32;6.70;99.90
51500;DHT22;39101;53.478;6.158;2023-02-01T07:17:58;6.50;99.90
51500;DHT22;39101;53.478;6.158;2023-02-01T07:20:24;6.50;99.90
51500;DHT22;39101;53.478;6.158;2023-02-01T07:22:55;6.70;99.90
51500;DHT22;39101;53.478;6.158;2023-02-01T07:25:22;6.70;99.90
51500;DHT22;39101;53.478;6.158;2023-02-01T07:27:48;6.60;99.90
51500;DHT22;39101;53.478;6.158;2023-02-01T07:30:13;6.70;99.90
51500;DHT22;39101;53.478;6.158;2023-02-01T07:32:39;6.80;99.90
51500;DHT22;39101;53.478;6.158;2023-02-01T07:35:05;6.80;99.90
51500;DHT22;39101;53.478;6.158;2023-02-01T07:37:31;6.60;99.90
51500;DHT22;39101;53.478;6.158;2023-02-01T07:39:56;6.70;99.90
51500;DHT22;39101;53.478;6.158;2023-02-01T07:42:22;6.90;99.90
51500;DHT22;39101;53.478;6.158;2023-02-01T07:44:48;6.80;99.90
51500;DHT22;39101;53.478;6.158;2023-02-01T07:47:13;6.80;99.90
51500;DHT22;39101;53.478;6.158;2023-02-01T07:49:39;6.60;99.90
51500;DHT22;39101;53.478;6.158;2023-02-01T07:52:04;6.70;99.90
51500;DHT22;39101;53.478;6.158;2023-02-01T07:54:30;6.90;99.90
51500;DHT22;39101;53.478;6.158;2023-02-01T07:56:56;6.70;99.90
51500;DHT22;39101;53.478;6.158;2023-02-01T07:59:21;6.80;99.90
51500;DHT22;39101;53.478;6.158;2023-02-01T08:01:47;6.90;99.90
51500;DHT22;39101;53.478;6.158;2023-02-01T08:04:13;6.90;99.90
51500;DHT22;39101;53.478;6.158;2023-02-01T08:06:39;6.80;99.90
51500;DHT22;39101;53.478;6.158;2023-02-01T08:09:06;6.90;99.90
51500;DHT22;39101;53.478;6.158;2023-02-01T08:11:33;6.90;99.90
51500;DHT22;39101;53.478;6.158;2023-02-01T08:14:00;6.80;99.90
51500;DHT22;39101;53.478;6.158;2023-02-01T08:16:26;6.80;99.90
51500;DHT22;39101;53.478;6.158;2023-02-01T08:18:52;6.90;99.90
51500;DHT22;39101;53.478;6.158;2023-02-01T08:21:21;6.90;99.90
51500;DHT22;39101;53.478;6.158;2023-02-01T08:23:48;6.80;99.90
51500;DHT22;39101;53.478;6.158;2023-02-01T08:26:22;6.80;99.90
51500;DHT22;39101;53.478;6.158;2023-02-01T08:28:58;6.90;99.90
51500;DHT22;39101;53.478;6.158;2023-02-01T08:31:26;6.80;99.90
51500;DHT22;39101;53.478;6.158;2023-02-01T08:33:59;6.90;99.90
51500;DHT22;39101;53.478;6.158;2023-02-01T08:36:27;6.80;99.90
51500;DHT22;39101;53.478;6.158;2023-02-01T08:38:53;6.80;99.90
51500;DHT22;39101;53.478;6.158;2023-02-01T08:41:22;6.80;99.90
51500;DHT22;39101;53.478;6.158;2023-02-01T08:43:47;6.90;99.90
51500;DHT22;39101;53.478;6.158;2023-02-01T08:46:14;6.90;99.90
51500;DHT22;39101;53.478;6.158;2023-02-01T08:48:40;6.90;99.90
51500;DHT22;39101;53.478;6.158;2023-02-01T08:51:11;6.90;99.90
51500;DHT22;39101;53.478;6.158;2023-02-01T08:53:37;6.80;99.90
51500;DHT22;39101;53.478;6.158;2023-02-01T08:56:05;6.70;99.90
51500;DHT22;39101;53.478;6.158;2023-02-01T08:58:32;6.90;99.90
51500;DHT22;39101;53.478;6.158;2023-02-01T09:01:03;6.90;99.90
51500;DHT22;39101;53.478;6.158;2023-02-01T09:03:29;6.60;99.90
51500;DHT22;39101;53.478;6.158;2023-02-01T09:06:00;6.80;99.90
51500;DHT22;39101;53.478;6.158;2023-02-01T09:08:26;6.70;99.90
51500;DHT22;39101;53.478;6.158;2023-02-01T09:10:51;6.80;99.90
51500;DHT22;39101;53.478;6.158;2023-02-01T09:13:17;6.70;99.90
51500;DHT22;39101;53.478;6.158;2023-02-01T09:15:42;6.80;99.90
51500;DHT22;39101;53.478;6.158;2023-02-01T09:18:08;6.90;99.90
51500;DHT22;39101;53.478;6.158;2023-02-01T09:20:34;6.70;99.90
51500;DHT22;39101;53.478;6.158;2023-02-01T09:22:59;6.60;99.90
51500;DHT22;39101;53.478;6.158;2023-02-01T09:25:25;6.80;99.90
51500;DHT22;39101;53.478;6.158;2023-02-01T09:27:51;6.60;99.90
51500;DHT22;39101;53.478;6.158;2023-02-01T09:30:17;6.60;99.90
51500;DHT22;39101;53.478;6.158;2023-02-01T09:32:42;6.70;99.90
51500;DHT22;39101;53.478;6.158;2023-02-01T09:35:09;6.70;99.90
51500;DHT22;39101;53.478;6.158;2023-02-01T09:37:34;6.50;99.90
51500;DHT22;39101;53.478;6.158;2023-02-01T09:40:01;6.70;99.90
51500;DHT22;39101;53.478;6.158;2023-02-01T09:42:46;6.40;99.90
51500;DHT22;39101;53.478;6.158;2023-02-01T09:48:15;6.20;99.90
51500;DHT22;39101;53.478;6.158;2023-02-01T09:50:46;6.40;99.90
51500;DHT22;39101;53.478;6.158;2023-02-01T09:53:15;6.50;99.90
51500;DHT22;39101;53.478;6.158;2023-02-01T09:55:45;6.30;99.90
51500;DHT22;39101;53.478;6.158;2023-02-01T09:58:22;6.30;99.90
51500;DHT22;39101;53.478;6.158;2023-02-01T10:00:57;6.10;99.90
51500;DHT22;39101;53.478;6.158;2023-02-01T10:03:25;6.10;99.90
51500;DHT22;39101;53.478;6.158;2023-02-01T10:12:14;6.30;99.90
51500;DHT22;39101;53.478;6.158;2023-02-01T10:17:46;6.40;99.90
51500;DHT22;39101;53.478;6.158;2023-02-01T10:25:28;6.40;99.90
51500;DHT22;39101;53.478;6.158;2023-02-01T10:27:56;6.60;99.90
51500;DHT22;39101;53.478;6.158;2023-02-01T10:30:28;6.60;99.90
51500;DHT22;39101;53.478;6.158;2023-02-01T10:32:57;6.70;99.90
51500;DHT22;39101;53.478;6.158;2023-02-01T10:35:31;6.80;99.90
51500;DHT22;39101;53.478;6.158;2023-02-01T10:38:00;6.80;99.90
51500;DHT22;39101;53.478;6.158;2023-02-01T10:40:27;7.00;99.90
51500;DHT22;39101;53.478;6.158;2023-02-01T10:42:58;7.00;99.90
51500;DHT22;39101;53.478;6.158;2023-02-01T10:45:27;7.00;99.90
51500;DHT22;39101;53.478;6.158;2023-02-01T10:47:56;7.10;99.90
51500;DHT22;39101;53.478;6.158;2023-02-01T10:50:44;7.00;99.90
51500;DHT22;39101;53.478;6.158;2023-02-01T10:53:17;6.40;99.90
51500;DHT22;39101;53.478;6.158;2023-02-01T10:55:54;5.90;99.90
51500;DHT22;39101;53.478;6.158;2023-02-01T10:58:28;5.50;99.90
51500;DHT22;39101;53.478;6.158;2023-02-01T11:01:04;5.00;99.90
51500;DHT22;39101;53.478;6.158;2023-02-01T11:03:40;4.80;99.90
51500;DHT22;39101;53.478;6.158;2023-02-01T11:06:35;4.60;99.90
51500;DHT22;39101;53.478;6.158;2023-02-01T11:11:55;4.20;99.90
51500;DHT22;39101;53.478;6.158;2023-02-01T11:16:56;4.10;99.90
51500;DHT22;39101;53.478;6.158;2023-02-01T11:19:22;4.00;99.90
51500;DHT22;39101;53.478;6.158;2023-02-01T11:21:53;4.60;99.90
51500;DHT22;39101;53.478;6.158;2023-02-01T11:24:22;4.00;99.90
51500;DHT22;39101;53.478;6.158;2023-02-01T11:26:49;4.00;99.90
51500;DHT22;39101;53.478;6.158;2023-02-01T11:29:18;4.10;99.90
51500;DHT22;39101;53.478;6.158;2023-02-01T11:31:48;4.10;99.90
51500;DHT22;39101;53.478;6.158;2023-02-01T11:34:20;4.10;99.90
51500;DHT22;39101;53.478;6.158;2023-02-01T11:36:49;4.20;99.90
51500;DHT22;39101;53.478;6.158;2023-02-01T11:44:44;4.40;99.90
51500;DHT22;39101;53.478;6.158;2023-02-01T11:47:28;4.40;99.90
51500;DHT22;39101;53.478;6.158;2023-02-01T11:49:59;4.60;99.90
51500;DHT22;39101;53.478;6.158;2023-02-01T12:11:44;5.60;99.90
51500;DHT22;39101;53.478;6.158;2023-02-01T12:22:54;6.90;99.90
51500;DHT22;39101;53.478;6.158;2023-02-01T12:31:15;7.10;99.90
51500;DHT22;39101;53.478;6.158;2023-02-01T12:36:52;7.30;99.90
51500;DHT22;39101;53.478;6.158;2023-02-01T12:47:05;7.20;99.90
51500;DHT22;39101;53.478;6.158;2023-02-01T12:52:12;7.50;99.90
51500;DHT22;39101;53.478;6.158;2023-02-01T12:55:00;7.20;99.90
51500;DHT22;39101;53.478;6.158;2023-02-01T12:57:33;7.40;99.90
51500;DHT22;39101;53.478;6.158;2023-02-01T13:00:02;7.30;99.90
51500;DHT22;39101;53.478;6.158;2023-02-01T13:05:21;7.70;99.90
51500;DHT22;39101;53.478;6.158;2023-02-01T13:16:28;7.50;99.90
51500;DHT22;39101;53.478;6.158;2023-02-01T13:21:43;8.10;99.90
51500;DHT22;39101;53.478;6.158;2023-02-01T13:24:27;8.10;99.90
51500;DHT22;39101;53.478;6.158;2023-02-01T13:26:55;8.20;99.90
51500;DHT22;39101;53.478;6.158;2023-02-01T13:29:22;7.60;99.90
51500;DHT22;39101;53.478;6.158;2023-02-01T13:43:26;7.90;99.90
51500;DHT22;39101;53.478;6.158;2023-02-01T13:45:56;8.10;99.90
51500;DHT22;39101;53.478;6.158;2023-02-01T13:48:46;7.70;99.90
51500;DHT22;39101;53.478;6.158;2023-02-01T13:51:13;7.70;99.90
51500;DHT22;39101;53.478;6.158;2023-02-01T13:53:46;8.10;99.90
51500;DHT22;39101;53.478;6.158;2023-02-01T13:56:20;7.60;99.90
51500;DHT22;39101;53.478;6.158;2023-02-01T13:58:48;8.00;99.90
51500;DHT22;39101;53.478;6.158;2023-02-01T14:03:56;7.50;99.90
51500;DHT22;39101;53.478;6.158;2023-02-01T14:11:56;8.00;99.90
51500;DHT22;39101;53.478;6.158;2023-02-01T14:19:27;7.40;99.90
51500;DHT22;39101;53.478;6.158;2023-02-01T14:21:57;7.90;99.90
51500;DHT22;39101;53.478;6.158;2023-02-01T14:24:34;7.80;99.90
51500;DHT22;39101;53.478;6.158;2023-02-01T14:29:43;7.60;99.90
51500;DHT22;39101;53.478;6.158;2023-02-01T14:32:22;7.70;99.90
51500;DHT22;39101;53.478;6.158;2023-02-01T14:34:52;7.90;99.90
51500;DHT22;39101;53.478;6.158;2023-02-01T14:50:22;7.80;99.90
51500;DHT22;39101;53.478;6.158;2023-02-01T14:55:39;7.90;99.90
51500;DHT22;39101;53.478;6.158;2023-02-01T14:58:16;7.80;99.90
51500;DHT22;39101;53.478;6.158;2023-02-01T15:00:54;8.10;99.90
51500;DHT22;39101;53.478;6.158;2023-02-01T15:06:00;7.80;99.90
51500;DHT22;39101;53.478;6.158;2023-02-01T15:08:33;8.00;99.90
51500;DHT22;39101;53.478;6.158;2023-02-01T15:11:05;8.20;99.90
51500;DHT22;39101;53.478;6.158;2023-02-01T15:13:32;8.30;99.90
51500;DHT22;39101;53.478;6.158;2023-02-01T15:16:15;8.00;99.90
51500;DHT22;39101;53.478;6.158;2023-02-01T15:18:41;8.00;99.90
51500;DHT22;39101;53.478;6.158;2023-02-01T15:21:19;8.10;99.90
51500;DHT22;39101;53.478;6.158;2023-02-01T15:23:45;8.10;99.90
51500;DHT22;39101;53.478;6.158;2023-02-01T15:26:34;7.70;99.90
51500;DHT22;39101;53.478;6.158;2023-02-01T15:29:00;8.00;99.90
51500;DHT22;39101;53.478;6.158;2023-02-01T15:31:34;7.70;99.90
51500;DHT22;39101;53.478;6.158;2023-02-01T15:34:00;7.70;99.90
51500;DHT22;39101;53.478;6.158;2023-02-01T15:36:26;7.70;99.90
51500;DHT22;39101;53.478;6.158;2023-02-01T15:41:46;7.90;99.90
51500;DHT22;39101;53.478;6.158;2023-02-01T15:44:37;7.90;99.90
51500;DHT22;39101;53.478;6.158;2023-02-01T15:47:18;7.80;99.90
51500;DHT22;39101;53.478;6.158;2023-02-01T15:49:51;7.70;99.90
51500;DHT22;39101;53.478;6.158;2023-02-01T15:54:59;7.70;99.90
51500;DHT22;39101;53.478;6.158;2023-02-01T15:57:33;7.40;99.90
51500;DHT22;39101;53.478;6.158;2023-02-01T16:00:07;7.40;99.90
51500;DHT22;39101;53.478;6.158;2023-02-01T16:02:52;7.50;99.90
51500;DHT22;39101;53.478;6.158;2023-02-01T16:05:36;7.70;99.90
51500;DHT22;39101;53.478;6.158;2023-02-01T16:08:14;7.50;99.90
51500;DHT22;39101;53.478;6.158;2023-02-01T16:10:52;7.40;99.90
51500;DHT22;39101;53.478;6.158;2023-02-01T16:13:19;7.50;99.90
51500;DHT22;39101;53.478;6.158;2023-02-01T16:15:46;7.20;99.90
51500;DHT22;39101;53.478;6.158;2023-02-01T16:18:13;7.40;99.90
51500;DHT22;39101;53.478;6.158;2023-02-01T16:20:41;7.20;99.90
51500;DHT22;39101;53.478;6.158;2023-02-01T16:23:08;7.30;99.90
51500;DHT22;39101;53.478;6.158;2023-02-01T16:25:36;7.50;99.90
51500;DHT22;39101;53.478;6.158;2023-02-01T16:28:02;7.20;99.90
51500;DHT22;39101;53.478;6.158;2023-02-01T16:30:28;7.20;99.90
51500;DHT22;39101;53.478;6.158;2023-02-01T16:32:54;7.10;99.90
51500;DHT22;39101;53.478;6.158;2023-02-01T16:35:27;7.10;99.90
51500;DHT22;39101;53.478;6.158;2023-02-01T16:37:53;7.10;99.90
51500;DHT22;39101;53.478;6.158;2023-02-01T16:40:20;7.10;99.90
51500;DHT22;39101;53.478;6.158;2023-02-01T16:42:53;7.30;99.90
51500;DHT22;39101;53.478;6.158;2023-02-01T16:45:20;7.20;99.90
51500;DHT22;39101;53.478;6.158;2023-02-01T16:47:51;7.10;99.90
51500;DHT22;39101;53.478;6.158;2023-02-01T16:50:22;7.20;99.90
51500;DHT22;39101;53.478;6.158;2023-02-01T16:52:48;7.10;99.90
51500;DHT22;39101;53.478;6.158;2023-02-01T16:55:18;7.20;99.90
51500;DHT22;39101;53.478;6.158;2023-02-01T16:57:43;7.20;99.90
51500;DHT22;39101;53.478;6.158;2023-02-01T17:00:10;7.10;99.90
51500;DHT22;39101;53.478;6.158;2023-02-01T17:02:41;7.20;99.90
51500;DHT22;39101;53.478;6.158;2023-02-01T17:05:08;7.10;99.90
51500;DHT22;39101;53.478;6.158;2023-02-01T17:07:35;7.10;99.90
51500;DHT22;39101;53.478;6.158;2023-02-01T17:10:01;7.20;99.90
51500;DHT22;39101;53.478;6.158;2023-02-01T17:12:30;7.20;99.90
51500;DHT22;39101;53.478;6.158;2023-02-01T17:14:57;7.00;99.90
51500;DHT22;39101;53.478;6.158;2023-02-01T17:17:27;7.10;99.90
51500;DHT22;39101;53.478;6.158;2023-02-01T17:19:55;7.30;99.90
51500;DHT22;39101;53.478;6.158;2023-02-01T17:22:21;7.30;99.90
51500;DHT22;39101;53.478;6.158;2023-02-01T17:24:47;7.20;99.90
51500;DHT22;39101;53.478;6.158;2023-02-01T17:27:13;7.00;99.90
51500;DHT22;39101;53.478;6.158;2023-02-01T17:29:39;7.20;99.90
51500;DHT22;39101;53.478;6.158;2023-02-01T17:32:20;7.10;99.90
51500;DHT22;39101;53.478;6.158;2023-02-01T17:34:46;7.00;99.90
51500;DHT22;39101;53.478;6.158;2023-02-01T17:37:26;7.20;99.90
51500;DHT22;39101;53.478;6.158;2023-02-01T17:39:52;7.20;99.90
51500;DHT22;39101;53.478;6.158;2023-02-01T17:42:24;7.10;99.90
51500;DHT22;39101;53.478;6.158;2023-02-01T17:45:00;7.10;99.90
51500;DHT22;39101;53.478;6.158;2023-02-01T17:47:26;7.20;99.90
51500;DHT22;39101;53.478;6.158;2023-02-01T17:49:51;7.10;99.90
51500;DHT22;39101;53.478;6.158;2023-02-01T17:52:23;7.20;99.90
51500;DHT22;39101;53.478;6.158;2023-02-01T17:54:49;7.20;99.90
51500;DHT22;39101;53.478;6.158;2023-02-01T17:57:18;7.20;99.90
51500;DHT22;39101;53.478;6.158;2023-02-01T17:59:44;7.10;99.90
51500;DHT22;39101;53.478;6.158;2023-02-01T18:02:21;7.20;99.90
51500;DHT22;39101;53.478;6.158;2023-02-01T18:04:50;7.20;99.90
51500;DHT22;39101;53.478;6.158;2023-02-01T18:07:16;7.20;99.90
51500;DHT22;39101;53.478;6.158;2023-02-01T18:09:42;7.30;99.90
51500;DHT22;39101;53.478;6.158;2023-02-01T18:12:20;7.40;99.90
51500;DHT22;39101;53.478;6.158;2023-02-01T18:14:46;7.40;99.90
51500;DHT22;39101;53.478;6.158;2023-02-01T18:17:12;7.20;99.90
51500;DHT22;39101;53.478;6.158;2023-02-01T18:19:38;7.20;99.90
51500;DHT22;39101;53.478;6.158;2023-02-01T18:22:04;7.20;99.90
51500;DHT22;39101;53.478;6.158;2023-02-01T18:24:30;7.30;99.90
51500;DHT22;39101;53.478;6.158;2023-02-01T18:26:58;7.10;99.90
51500;DHT22;39101;53.478;6.158;2023-02-01T18:29:24;7.00;99.90
51500;DHT22;39101;53.478;6.158;2023-02-01T18:31:50;7.20;99.90
51500;DHT22;39101;53.478;6.158;2023-02-01T18:34:16;7.00;99.90
51500;DHT22;39101;53.478;6.158;2023-02-01T18:36:47;7.10;99.90
51500;DHT22;39101;53.478;6.158;2023-02-01T18:39:13;7.00;99.90
51500;DHT22;39101;53.478;6.158;2023-02-01T18:41:38;6.90;99.90
51500;DHT22;39101;53.478;6.158;2023-02-01T18:44:05;6.80;99.90
51500;DHT22;39101;53.478;6.158;2023-02-01T18:46:31;7.00;99.90
51500;DHT22;39101;53.478;6.158;2023-02-01T18:48:57;6.80;99.90
51500;DHT22;39101;53.478;6.158;2023-02-01T18:51:22;6.80;99.90
51500;DHT22;39101;53.478;6.158;2023-02-01T18:53:49;7.00;99.90